Time,TemperatureF,DewpointF,PressureIn,WindDirection,WindDirectionDegrees,WindSpeedMPH,WindSpeedGustMPH,Humidity,HourlyPrecipIn,Conditions,Clouds,dailyrainin,SolarRadiationWatts/m^2,SoftwareType,DateUTC
2013-05-04 00:01:00,68.5,64.8,29.76,ENE,66,13.0,15.0,88,0.00,,OVC023,0.00,0.00,VWS V14.01,2013-05-04 04:01:00,
2013-05-04 00:07:00,68.6,64.9,29.76,North,5,10.0,16.0,88,0.00,,OVC023,0.00,0.00,VWS V14.01,2013-05-04 04:07:00,
2013-05-04 00:12:00,68.5,64.8,29.76,North,5,12.0,22.0,88,0.00,,OVC023,0.00,0.00,VWS V14.01,2013-05-04 04:12:00,
2013-05-04 00:17:00,68.5,64.8,29.76,NNE,32,11.0,24.0,88,0.00,,OVC023,0.00,0.00,VWS V14.01,2013-05-04 04:17:00,
2013-05-04 00:22:00,68.5,64.8,29.76,NNE,15,13.0,24.0,88,0.00,,OVC022,0.00,0.00,VWS V14.01,2013-05-04 04:22:00,
2013-05-04 00:27:00,68.4,65.0,29.76,NNE,24,6.0,24.0,89,0.00,,OVC022,0.00,0.00,VWS V14.01,2013-05-04 04:27:00,
2013-05-04 00:32:00,68.2,64.8,29.76,NE,51,9.0,17.0,89,0.00,,OVC022,0.00,0.00,VWS V14.01,2013-05-04 04:32:00,
2013-05-04 00:37:00,68.1,64.7,29.76,NE,40,12.0,21.0,89,0.00,,OVC022,0.00,0.00,VWS V14.01,2013-05-04 04:37:00,
2013-05-04 00:42:00,68.0,64.6,29.76,North,5,7.0,21.0,89,0.00,,OVC024,0.00,0.00,VWS V14.01,2013-05-04 04:42:00,
2013-05-04 00:47:00,68.0,65.0,29.76,NE,38,11.0,23.0,90,0.00,,OVC024,0.00,0.00,VWS V14.01,2013-05-04 04:47:00,
2013-05-04 00:52:00,67.9,64.9,29.75,NE,42,14.0,23.0,90,0.00,,OVC024,0.00,0.00,VWS V14.01,2013-05-04 04:52:00,
2013-05-04 00:57:00,67.9,64.9,29.75,NNE,24,14.0,24.0,90,0.00,,OVC024,0.00,0.00,VWS V14.01,2013-05-04 04:57:00,
2013-05-04 01:02:00,67.9,64.9,29.75,NE,46,8.0,16.0,90,0.00,,OVC022,0.00,0.00,VWS V14.01,2013-05-04 05:02:00,
2013-05-04 01:07:00,67.8,64.8,29.75,NE,38,7.0,16.0,90,0.00,,OVC022,0.00,0.00,VWS V14.01,2013-05-04 05:07:00,
2013-05-04 01:12:00,67.7,64.7,29.74,NNE,17,13.0,16.0,90,0.00,,OVC022,0.00,0.00,VWS V14.01,2013-05-04 05:12:00,
2013-05-04 01:17:00,67.7,64.7,29.74,North,5,12.0,17.0,90,0.00,,OVC022,0.00,0.00,VWS V14.01,2013-05-04 05:17:00,
2013-05-04 01:22:00,67.7,64.7,29.74,NNE,21,11.0,17.0,90,0.00,,OVC027,0.00,0.00,VWS V14.01,2013-05-04 05:22:00,
2013-05-04 01:27:00,67.6,64.6,29.74,North,360,8.0,17.0,90,0.00,,OVC027,0.00,0.00,VWS V14.01,2013-05-04 05:27:00,
2013-05-04 01:32:00,67.6,64.6,29.74,NE,36,14.0,14.0,90,0.00,,OVC027,0.00,0.00,VWS V14.01,2013-05-04 05:32:00,
2013-05-04 01:37:00,67.6,64.6,29.74,NNE,15,13.0,16.0,90,0.00,,OVC027,0.00,0.00,VWS V14.01,2013-05-04 05:37:00,
2013-05-04 01:42:00,67.7,64.7,29.73,NNE,28,6.0,17.0,90,0.00,,OVC023,0.00,0.00,VWS V14.01,2013-05-04 05:42:00,
2013-05-04 01:47:00,67.8,64.8,29.73,NNE,22,11.0,20.0,90,0.00,,OVC023,0.00,0.00,VWS V14.01,2013-05-04 05:47:00,
2013-05-04 01:52:00,67.8,64.8,29.73,NE,40,5.0,20.0,90,0.00,,OVC023,0.00,0.00,VWS V14.01,2013-05-04 05:52:00,
2013-05-04 01:57:00,67.8,64.8,29.73,NNE,27,12.0,20.0,90,0.00,,OVC023,0.00,0.00,VWS V14.01,2013-05-04 05:57:00,
2013-05-04 02:02:00,67.7,64.7,29.72,NNE,33,11.0,14.0,90,0.00,,OVC025,0.00,0.00,VWS V14.01,2013-05-04 06:02:00,
2013-05-04 02:07:00,67.6,64.6,29.72,NNE,29,13.0,16.0,90,0.00,,OVC025,0.00,0.00,VWS V14.01,2013-05-04 06:07:00,
2013-05-04 02:12:00,67.5,64.5,29.72,North,9,7.0,16.0,90,0.00,,OVC025,0.00,0.00,VWS V14.01,2013-05-04 06:12:00,
2013-05-04 02:17:00,67.4,64.7,29.72,NNE,19,9.0,16.0,91,0.00,,OVC025,0.00,0.00,VWS V14.01,2013-05-04 06:17:00,
2013-05-04 02:22:00,67.3,64.6,29.72,NE,38,5.0,16.0,91,0.00,,OVC025,0.00,0.00,VWS V14.01,2013-05-04 06:22:00,
2013-05-04 02:27:00,67.3,64.9,29.72,NE,53,5.0,18.0,92,0.00,,OVC025,0.00,0.00,VWS V14.01,2013-05-04 06:27:00,
2013-05-04 02:32:00,67.1,64.7,29.71,North,5,8.0,14.0,92,0.00,,OVC025,0.00,0.00,VWS V14.01,2013-05-04 06:32:00,
2013-05-04 02:37:00,67.0,64.6,29.71,NNE,22,5.0,14.0,92,0.00,,OVC024,0.00,0.00,VWS V14.01,2013-05-04 06:37:00,
2013-05-04 02:42:00,67.0,64.9,29.71,NNE,24,12.0,14.0,93,0.00,,OVC024,0.00,0.00,VWS V14.01,2013-05-04 06:42:00,
2013-05-04 02:47:00,66.9,64.8,29.70,NNE,26,4.0,14.0,93,0.00,,OVC024,0.00,0.00,VWS V14.01,2013-05-04 06:47:00,
2013-05-04 02:53:00,66.8,64.7,29.70,NNE,15,4.0,14.0,93,0.00,,OVC024,0.00,0.00,VWS V14.01,2013-05-04 06:53:00,
2013-05-04 02:58:00,66.9,65.1,29.70,NE,36,7.0,14.0,94,0.00,,OVC024,0.00,0.00,VWS V14.01,2013-05-04 06:58:00,
2013-05-04 03:03:00,67.0,65.2,29.70,NNE,31,9.0,13.0,94,0.00,,OVC014,0.00,0.00,VWS V14.01,2013-05-04 07:03:00,
2013-05-04 03:08:00,67.1,65.3,29.70,NNE,24,6.0,13.0,94,0.00,,OVC014,0.00,0.00,VWS V14.01,2013-05-04 07:08:00,
2013-05-04 03:13:00,67.2,65.4,29.69,NNE,22,11.0,13.0,94,0.00,,OVC014,0.00,0.00,VWS V14.01,2013-05-04 07:13:00,
2013-05-04 03:18:00,67.2,65.4,29.69,NNE,29,10.0,13.0,94,0.00,,OVC014,0.00,0.00,VWS V14.01,2013-05-04 07:18:00,
2013-05-04 03:23:00,67.3,65.5,29.69,NE,36,8.0,15.0,94,0.00,,OVC014,0.00,0.00,VWS V14.01,2013-05-04 07:23:00,
2013-05-04 03:28:00,67.4,65.6,29.69,North,9,7.0,15.0,94,0.00,,OVC014,0.00,0.00,VWS V14.01,2013-05-04 07:28:00,
2013-05-04 03:33:00,67.4,65.6,29.69,NNE,29,8.0,11.0,94,0.00,,OVC014,0.00,0.00,VWS V14.01,2013-05-04 07:33:00,
2013-05-04 03:38:00,67.5,65.7,29.69,NNE,28,5.0,12.0,94,0.00,,OVC014,0.00,0.00,VWS V14.01,2013-05-04 07:38:00,
2013-05-04 03:43:00,67.5,65.7,29.69,NNE,21,6.0,12.0,94,0.00,,OVC014,0.00,0.00,VWS V14.01,2013-05-04 07:43:00,
2013-05-04 03:48:00,67.6,65.8,29.69,North,11,6.0,12.0,94,0.00,,OVC014,0.00,0.00,VWS V14.01,2013-05-04 07:48:00,
2013-05-04 03:53:00,67.6,65.8,29.69,North,360,9.0,12.0,94,0.00,,OVC014,0.00,0.00,VWS V14.01,2013-05-04 07:53:00,
2013-05-04 03:58:00,67.7,65.9,29.69,North,5,10.0,12.0,94,0.00,,OVC014,0.00,0.00,VWS V14.01,2013-05-04 07:58:00,
2013-05-04 04:03:00,67.8,66.0,29.69,NE,43,5.0,8.0,94,0.00,,OVC010,0.00,0.00,VWS V14.01,2013-05-04 08:03:00,
2013-05-04 04:08:00,67.8,66.0,29.69,North,5,9.0,10.0,94,0.00,,OVC010,0.00,0.00,VWS V14.01,2013-05-04 08:08:00,
2013-05-04 04:13:00,67.8,66.0,29.69,North,5,7.0,12.0,94,0.00,,OVC010,0.00,0.00,VWS V14.01,2013-05-04 08:13:00,
2013-05-04 04:18:00,67.8,66.0,29.69,NNE,30,5.0,12.0,94,0.00,,OVC010,0.00,0.00,VWS V14.01,2013-05-04 08:18:00,
2013-05-04 04:23:00,67.8,66.3,29.68,NE,46,9.0,14.0,95,0.00,,OVC010,0.00,0.00,VWS V14.01,2013-05-04 08:23:00,
2013-05-04 04:28:00,67.8,66.3,29.69,NNE,20,4.0,14.0,95,0.00,,OVC010,0.00,0.00,VWS V14.01,2013-05-04 08:28:00,
2013-05-04 04:33:00,67.8,66.3,29.69,NE,43,6.0,9.0,95,0.00,,OVC010,0.00,0.00,VWS V14.01,2013-05-04 08:33:00,
2013-05-04 04:38:00,67.8,66.3,29.69,North,360,8.0,11.0,95,0.00,,OVC012,0.00,0.00,VWS V14.01,2013-05-04 08:38:00,
2013-05-04 04:43:00,67.8,66.3,29.68,NE,35,11.0,11.0,95,0.00,,OVC012,0.00,0.00,VWS V14.01,2013-05-04 08:43:00,
2013-05-04 04:48:00,67.9,66.4,29.68,NE,43,5.0,11.0,95,0.00,,OVC012,0.00,0.00,VWS V14.01,2013-05-04 08:48:00,
2013-05-04 04:53:00,67.9,66.4,29.69,ENE,57,4.0,11.0,95,0.01,,OVC012,0.01,0.00,VWS V14.01,2013-05-04 08:53:00,
2013-05-04 04:58:00,67.9,66.4,29.69,NNE,26,4.0,11.0,95,0.01,,OVC006,0.01,0.00,VWS V14.01,2013-05-04 08:58:00,
2013-05-04 05:03:00,67.9,66.4,29.69,NE,34,6.0,7.0,95,0.01,,OVC006,0.01,0.00,VWS V14.01,2013-05-04 09:03:00,
2013-05-04 05:08:00,67.9,66.4,29.69,NE,34,4.0,7.0,95,0.01,,OVC006,0.01,0.00,VWS V14.01,2013-05-04 09:08:00,
2013-05-04 05:14:00,67.9,66.7,29.69,NNE,32,4.0,7.0,96,0.01,,OVC006,0.01,0.00,VWS V14.01,2013-05-04 09:14:00,
2013-05-04 05:19:00,67.9,66.7,29.69,NNE,22,3.0,7.0,96,0.01,,OVC006,0.01,0.00,VWS V14.01,2013-05-04 09:19:00,
2013-05-04 05:24:00,67.9,66.7,29.69,North,5,7.0,7.0,96,0.01,,OVC006,0.01,0.00,VWS V14.01,2013-05-04 09:24:00,
2013-05-04 05:29:00,67.9,66.7,29.69,NNE,30,5.0,7.0,96,0.01,,OVC006,0.01,0.00,VWS V14.01,2013-05-04 09:29:00,
2013-05-04 05:34:00,68.0,66.8,29.69,NNE,22,3.0,7.0,96,0.01,,OVC006,0.01,0.00,VWS V14.01,2013-05-04 09:34:00,
2013-05-04 05:39:00,68.0,66.8,29.70,NE,45,3.0,7.0,96,0.01,,OVC014,0.01,0.00,VWS V14.01,2013-05-04 09:39:00,
2013-05-04 05:44:00,68.1,66.9,29.70,NNE,31,3.0,7.0,96,0.02,,OVC014,0.02,0.00,VWS V14.01,2013-05-04 09:44:00,
2013-05-04 05:49:00,68.2,67.0,29.70,NE,42,3.0,7.0,96,0.02,,OVC014,0.02,0.00,VWS V14.01,2013-05-04 09:49:00,
2013-05-04 05:54:00,68.2,67.0,29.70,NNE,16,7.0,8.0,96,0.02,,OVC014,0.02,0.00,VWS V14.01,2013-05-04 09:54:00,
2013-05-04 05:59:00,68.3,67.1,29.70,NE,34,3.0,11.0,96,0.02,,OVC014,0.02,0.00,VWS V14.01,2013-05-04 09:59:00,
2013-05-04 06:04:00,68.2,67.0,29.70,NNE,18,5.0,6.0,96,0.01,,OVC014,0.02,0.00,VWS V14.01,2013-05-04 10:04:00,
2013-05-04 06:09:00,68.2,67.0,29.70,North,355,3.0,8.0,96,0.01,,OVC014,0.02,0.00,VWS V14.01,2013-05-04 10:09:00,
2013-05-04 06:14:00,68.3,67.1,29.70,NNE,22,3.0,8.0,96,0.01,,OVC014,0.02,0.00,VWS V14.01,2013-05-04 10:14:00,
2013-05-04 06:19:00,68.3,67.1,29.70,NNE,30,4.0,8.0,96,0.01,,OVC012,0.02,0.00,VWS V14.01,2013-05-04 10:19:00,
2013-05-04 06:24:00,68.3,67.1,29.70,NNE,23,4.0,8.0,96,0.01,,OVC012,0.02,0.00,VWS V14.01,2013-05-04 10:24:00,
2013-05-04 06:29:00,68.3,67.1,29.69,NNE,25,2.0,8.0,96,0.01,,OVC012,0.02,0.00,VWS V14.01,2013-05-04 10:29:00,
2013-05-04 06:34:00,68.3,67.1,29.69,North,9,6.0,6.0,96,0.01,,OVC012,0.02,0.00,VWS V14.01,2013-05-04 10:34:00,
2013-05-04 06:39:00,68.3,67.1,29.69,North,5,4.0,6.0,96,0.01,,OVC013,0.02,0.00,VWS V14.01,2013-05-04 10:39:00,
2013-05-04 06:44:00,68.3,67.1,29.70,North,360,5.0,7.0,96,0.01,,OVC013,0.02,0.00,VWS V14.01,2013-05-04 10:44:00,
2013-05-04 06:49:00,68.3,67.1,29.70,NNE,32,2.0,7.0,96,0.01,,OVC013,0.02,0.00,VWS V14.01,2013-05-04 10:49:00,
2013-05-04 06:54:00,68.3,67.1,29.71,North,5,6.0,9.0,96,0.01,,OVC013,0.02,5.00,VWS V14.01,2013-05-04 10:54:00,
2013-05-04 06:59:00,68.3,67.1,29.71,North,5,4.0,9.0,96,0.01,,OVC015,0.02,9.00,VWS V14.01,2013-05-04 10:59:00,
2013-05-04 07:04:00,68.3,67.1,29.71,NNE,26,3.0,10.0,96,0.00,,OVC015,0.02,11.00,VWS V14.01,2013-05-04 11:04:00,
2013-05-04 07:09:00,68.3,67.1,29.71,NNE,13,4.0,10.0,96,0.00,,OVC015,0.02,23.00,VWS V14.01,2013-05-04 11:09:00,
2013-05-04 07:14:00,68.3,67.1,29.71,North,5,3.0,10.0,96,0.00,,OVC015,0.02,18.00,VWS V14.01,2013-05-04 11:14:00,
2013-05-04 07:19:00,68.3,67.1,29.72,NNE,33,5.0,10.0,96,0.00,,OVC012,0.02,28.00,VWS V14.01,2013-05-04 11:19:00,
2013-05-04 07:24:00,68.4,67.2,29.72,NNE,13,3.0,10.0,96,0.00,,OVC012,0.02,26.00,VWS V14.01,2013-05-04 11:24:00,
2013-05-04 07:29:00,68.5,67.3,29.72,NNE,13,2.0,10.0,96,0.00,,OVC012,0.02,26.00,VWS V14.01,2013-05-04 11:29:00,
2013-05-04 07:34:00,68.5,67.3,29.72,NNE,26,5.0,7.0,96,0.00,,OVC012,0.02,33.00,VWS V14.01,2013-05-04 11:34:00,
2013-05-04 07:39:00,68.6,67.4,29.72,NNE,24,3.0,7.0,96,0.00,,OVC006,0.02,47.00,VWS V14.01,2013-05-04 11:39:00,
2013-05-04 07:44:00,68.8,67.6,29.72,NE,34,4.0,8.0,96,0.00,,OVC006,0.02,77.00,VWS V14.01,2013-05-04 11:44:00,
2013-05-04 07:50:00,69.0,67.8,29.72,North,5,4.0,8.0,96,0.00,,OVC006,0.02,93.00,VWS V14.01,2013-05-04 11:50:00,
2013-05-04 07:55:00,69.1,67.9,29.72,North,355,2.0,8.0,96,0.00,,OVC006,0.02,70.00,VWS V14.01,2013-05-04 11:55:00,
2013-05-04 08:00:00,69.2,68.0,29.72,NNE,26,3.0,3.0,96,0.00,,OVC006,0.02,118.00,VWS V14.01,2013-05-04 12:00:00,
2013-05-04 08:05:00,69.8,68.6,29.71,NNE,24,8.0,9.0,96,0.00,,OVC006,0.02,234.00,VWS V14.01,2013-05-04 12:05:00,
2013-05-04 08:10:00,70.3,69.1,29.71,NE,44,4.0,11.0,96,0.00,,OVC006,0.02,181.00,VWS V14.01,2013-05-04 12:10:00,
2013-05-04 08:16:00,70.6,69.1,29.71,North,5,4.0,11.0,95,0.00,,OVC006,0.02,211.00,VWS V14.01,2013-05-04 12:16:00,
2013-05-04 08:21:00,70.9,69.4,29.71,NE,49,5.0,11.0,95,0.00,,OVC015,0.02,229.00,VWS V14.01,2013-05-04 12:21:00,
2013-05-04 08:26:00,71.0,69.2,29.71,NE,55,3.0,11.0,94,0.00,,OVC015,0.02,88.00,VWS V14.01,2013-05-04 12:26:00,
2013-05-04 08:31:00,70.6,68.5,29.71,NNE,22,4.0,8.0,93,0.00,,OVC015,0.02,134.00,VWS V14.01,2013-05-04 12:31:00,
2013-05-04 08:36:00,70.6,68.5,29.71,NNE,17,4.0,8.0,93,0.00,,OVC015,0.02,172.00,VWS V14.01,2013-05-04 12:36:00,
2013-05-04 08:41:00,70.9,68.8,29.71,North,5,4.0,8.0,93,0.00,,OVC015,0.02,178.00,VWS V14.01,2013-05-04 12:41:00,
2013-05-04 08:46:00,71.1,69.0,29.71,NE,46,3.0,8.0,93,0.00,,OVC015,0.02,142.00,VWS V14.01,2013-05-04 12:46:00,
2013-05-04 08:51:00,71.0,68.6,29.71,NNE,32,5.0,8.0,92,0.00,,OVC015,0.02,130.00,VWS V14.01,2013-05-04 12:51:00,
2013-05-04 08:56:00,71.0,68.9,29.71,NE,53,7.0,8.0,93,0.00,,OVC015,0.02,142.00,VWS V14.01,2013-05-04 12:56:00,
2013-05-04 09:01:00,71.2,68.8,29.71,NE,46,6.0,10.0,92,0.00,,OVC008,0.02,144.00,VWS V14.01,2013-05-04 13:01:00,
2013-05-04 09:04:00,71.2,68.8,29.71,NNE,30,8.0,10.0,92,0.00,,OVC008,0.02,146.00,VWS V14.01,2013-05-04 13:04:00,
2013-05-04 09:09:00,71.2,68.4,29.71,NNE,17,3.0,10.0,91,0.00,,OVC008,0.02,167.00,VWS V14.01,2013-05-04 13:09:00,
2013-05-04 09:14:00,71.6,68.8,29.72,East,84,5.0,10.0,91,0.00,,OVC008,0.02,149.00,VWS V14.01,2013-05-04 13:14:00,
2013-05-04 09:19:00,71.7,68.6,29.72,NNE,29,4.0,10.0,90,0.00,,OVC020,0.02,146.00,VWS V14.01,2013-05-04 13:19:00,
2013-05-04 09:24:00,71.8,68.7,29.72,North,355,5.0,10.0,90,0.00,,OVC020,0.02,155.00,VWS V14.01,2013-05-04 13:24:00,
2013-05-04 09:29:00,72.2,69.4,29.72,NNE,24,2.0,10.0,91,0.00,,OVC020,0.02,193.00,VWS V14.01,2013-05-04 13:29:00,
2013-05-04 09:34:00,72.4,69.3,29.72,NNW,347,4.0,7.0,90,0.00,,OVC020,0.02,362.00,VWS V14.01,2013-05-04 13:34:00,
2013-05-04 09:39:00,73.1,70.0,29.72,North,355,3.0,7.0,90,0.00,,OVC026,0.02,635.00,VWS V14.01,2013-05-04 13:39:00,
2013-05-04 09:44:00,73.0,69.2,29.72,North,360,5.0,7.0,88,0.00,,OVC026,0.02,178.00,VWS V14.01,2013-05-04 13:44:00,
2013-05-04 09:49:00,72.8,69.0,29.72,NW,309,3.0,7.0,88,0.00,,OVC026,0.02,171.00,VWS V14.01,2013-05-04 13:49:00,
2013-05-04 09:54:00,72.9,69.1,29.72,NNE,15,2.0,7.0,88,0.00,,OVC026,0.02,207.00,VWS V14.01,2013-05-04 13:54:00,
2013-05-04 09:59:00,73.0,68.9,29.72,NNE,19,3.0,7.0,87,0.00,,OVC026,0.02,223.00,VWS V14.01,2013-05-04 13:59:00,
2013-05-04 10:04:00,73.0,68.9,29.72,NE,36,5.0,6.0,87,0.00,,OVC026,0.02,230.00,VWS V14.01,2013-05-04 14:04:00,
2013-05-04 10:09:00,73.3,69.5,29.72,North,360,7.0,7.0,88,0.00,,OVC026,0.02,236.00,VWS V14.01,2013-05-04 14:09:00,
2013-05-04 10:14:00,73.2,69.1,29.72,NE,53,1.0,7.0,87,0.00,,OVC026,0.02,378.00,VWS V14.01,2013-05-04 14:14:00,
2013-05-04 10:19:00,74.4,69.9,29.73,North,360,4.0,7.0,86,0.00,,OVC023,0.02,573.00,VWS V14.01,2013-05-04 14:19:00,
2013-05-04 10:24:00,75.1,69.9,29.73,North,355,3.0,7.0,84,0.00,,OVC023,0.02,401.00,VWS V14.01,2013-05-04 14:24:00,
2013-05-04 10:29:00,75.3,69.8,29.72,North,9,4.0,7.0,83,0.00,,OVC023,0.02,615.00,VWS V14.01,2013-05-04 14:29:00,
2013-05-04 10:34:00,75.9,70.7,29.72,NNW,346,4.0,4.0,84,0.00,,OVC023,0.02,408.00,VWS V14.01,2013-05-04 14:34:00,
2013-05-04 10:39:00,75.7,69.8,29.73,North,355,4.0,7.0,82,0.00,,OVC038,0.02,476.00,VWS V14.01,2013-05-04 14:39:00,
2013-05-04 10:44:00,76.4,69.8,29.73,NW,305,1.0,7.0,80,0.00,,OVC038,0.02,591.00,VWS V14.01,2013-05-04 14:44:00,
2013-05-04 10:49:00,76.1,69.8,29.72,NNW,327,2.0,7.0,81,0.00,,OVC038,0.02,494.00,VWS V14.01,2013-05-04 14:49:00,
2013-05-04 10:54:00,75.7,69.5,29.73,West,281,2.0,7.0,81,0.00,,OVC038,0.02,297.00,VWS V14.01,2013-05-04 14:54:00,
2013-05-04 11:00:00,75.7,69.8,29.73,NW,310,6.0,8.0,82,0.00,,BKN025,0.02,188.00,VWS V14.01,2013-05-04 15:00:00,
2013-05-04 11:05:00,75.1,68.9,29.73,NW,322,1.0,7.0,81,0.00,,BKN025,0.02,162.00,VWS V14.01,2013-05-04 15:05:00,
2013-05-04 11:10:00,75.1,69.2,29.73,NNE,13,1.0,7.0,82,0.00,,BKN025,0.02,169.00,VWS V14.01,2013-05-04 15:10:00,
2013-05-04 11:15:00,74.9,69.0,29.73,West,267,2.0,7.0,82,0.00,,BKN025,0.02,163.00,VWS V14.01,2013-05-04 15:15:00,
2013-05-04 11:20:00,74.8,69.3,29.73,NW,325,4.0,7.0,83,0.00,,BKN035,0.02,165.00,VWS V14.01,2013-05-04 15:20:00,
2013-05-04 11:25:00,74.8,69.7,29.73,NW,313,3.0,7.0,84,0.00,,BKN035,0.02,174.00,VWS V14.01,2013-05-04 15:25:00,
2013-05-04 11:30:00,74.7,69.6,29.73,NW,311,4.0,7.0,84,0.00,,BKN035,0.02,188.00,VWS V14.01,2013-05-04 15:30:00,
2013-05-04 11:35:00,74.9,69.4,29.73,NNW,348,2.0,6.0,83,0.00,,BKN035,0.02,216.00,VWS V14.01,2013-05-04 15:35:00,
2013-05-04 11:40:00,75.1,69.6,29.73,NW,325,3.0,6.0,83,0.00,,OVC047,0.02,290.00,VWS V14.01,2013-05-04 15:40:00,
2013-05-04 11:45:00,75.6,70.1,29.73,West,277,5.0,7.0,83,0.00,,OVC047,0.02,362.00,VWS V14.01,2013-05-04 15:45:00,
2013-05-04 11:50:00,75.8,69.9,29.73,NW,304,2.0,7.0,82,0.00,,OVC047,0.02,348.00,VWS V14.01,2013-05-04 15:50:00,
2013-05-04 11:55:00,76.1,70.2,29.72,WNW,301,2.0,7.0,82,0.00,,OVC047,0.02,336.00,VWS V14.01,2013-05-04 15:55:00,
2013-05-04 12:00:00,76.1,70.2,29.72,NNW,342,4.0,6.0,82,0.00,,OVC050,0.02,346.00,VWS V14.01,2013-05-04 16:00:00,
2013-05-04 12:05:00,76.2,69.9,29.72,NNW,345,2.0,9.0,81,0.00,,OVC050,0.02,501.00,VWS V14.01,2013-05-04 16:05:00,
2013-05-04 12:10:00,77.1,70.5,29.72,NNW,340,1.0,9.0,80,0.00,,OVC050,0.02,501.00,VWS V14.01,2013-05-04 16:10:00,
2013-05-04 12:15:00,77.3,69.9,29.72,NNW,330,3.0,9.0,78,0.00,,OVC050,0.02,577.00,VWS V14.01,2013-05-04 16:15:00,
2013-05-04 12:20:00,78.4,71.7,29.72,WNW,296,4.0,9.0,80,0.00,,OVC055,0.02,1194.00,VWS V14.01,2013-05-04 16:20:00,
2013-05-04 12:25:00,77.8,70.0,29.72,North,9,3.0,9.0,77,0.00,,OVC055,0.02,694.00,VWS V14.01,2013-05-04 16:25:00,
2013-05-04 12:30:00,78.0,71.3,29.72,NW,321,2.0,2.0,80,0.00,,OVC055,0.02,701.00,VWS V14.01,2013-05-04 16:30:00,
2013-05-04 12:35:00,78.3,70.5,29.71,NW,311,5.0,8.0,77,0.00,,OVC055,0.02,870.00,VWS V14.01,2013-05-04 16:35:00,
2013-05-04 12:40:00,78.0,69.4,29.71,West,264,3.0,8.0,75,0.00,,BKN047,0.02,650.00,VWS V14.01,2013-05-04 16:40:00,
2013-05-04 12:45:00,78.6,70.8,29.71,NNW,329,6.0,8.0,77,0.00,,BKN047,0.02,789.00,VWS V14.01,2013-05-04 16:45:00,
2013-05-04 12:50:00,78.7,69.7,29.71,NW,319,4.0,8.0,74,0.00,,BKN047,0.02,608.00,VWS V14.01,2013-05-04 16:50:00,
2013-05-04 12:55:00,78.8,70.6,29.71,NNW,348,7.0,8.0,76,0.00,,BKN047,0.02,429.00,VWS V14.01,2013-05-04 16:55:00,
2013-05-04 13:00:00,78.5,69.5,29.71,ENE,68,1.0,3.0,74,0.00,,OVC055,0.02,689.00,VWS V14.01,2013-05-04 17:00:00,
2013-05-04 13:05:00,78.4,69.4,29.70,NNW,336,3.0,8.0,74,0.00,,OVC055,0.02,381.00,VWS V14.01,2013-05-04 17:05:00,
2013-05-04 13:10:00,79.1,70.1,29.70,WNW,299,3.0,8.0,74,0.00,,OVC055,0.02,309.00,VWS V14.01,2013-05-04 17:10:00,
2013-05-04 13:15:00,78.7,70.1,29.70,NW,324,9.0,11.0,75,0.00,,OVC055,0.02,209.00,VWS V14.01,2013-05-04 17:15:00,
2013-05-04 13:21:00,78.4,69.4,29.70,WNW,286,3.0,11.0,74,0.00,,OVC055,0.02,260.00,VWS V14.01,2013-05-04 17:21:00,
2013-05-04 13:26:00,78.6,69.6,29.70,West,279,7.0,11.0,74,0.00,,OVC055,0.02,357.00,VWS V14.01,2013-05-04 17:26:00,
2013-05-04 13:31:00,80.4,71.4,29.70,NW,310,2.0,5.0,74,0.00,,OVC055,0.02,1130.00,VWS V14.01,2013-05-04 17:31:00,
2013-05-04 13:36:00,80.9,70.2,29.69,WSW,240,6.0,10.0,70,0.00,,OVC055,0.02,1016.00,VWS V14.01,2013-05-04 17:36:00,
2013-05-04 13:41:00,80.4,70.1,29.69,WSW,258,3.0,10.0,71,0.00,,OVC060,0.02,1104.00,VWS V14.01,2013-05-04 17:41:00,
2013-05-04 13:46:00,80.1,69.4,29.69,NW,321,7.0,15.0,70,0.00,,OVC060,0.02,355.00,VWS V14.01,2013-05-04 17:46:00,
2013-05-04 13:51:00,81.4,69.4,29.69,NW,306,10.0,15.0,67,0.00,,OVC060,0.02,979.00,VWS V14.01,2013-05-04 17:51:00,
2013-05-04 13:56:00,81.8,70.2,29.68,West,266,10.0,15.0,68,0.00,,OVC060,0.02,336.00,VWS V14.01,2013-05-04 17:56:00,
2013-05-04 14:01:00,80.6,69.5,29.68,SW,229,6.0,12.0,69,0.00,,BKN035,0.02,332.00,VWS V14.01,2013-05-04 18:01:00,
2013-05-04 14:06:00,81.1,69.6,29.68,WSW,256,4.0,13.0,68,0.00,,BKN028,0.02,935.00,VWS V14.01,2013-05-04 18:06:00,
2013-05-04 14:11:00,81.7,70.6,29.68,NW,316,9.0,13.0,69,0.00,,BKN028,0.02,928.00,VWS V14.01,2013-05-04 18:11:00,
2013-05-04 14:16:00,81.6,70.0,29.68,WNW,282,6.0,14.0,68,0.00,,BKN028,0.02,339.00,VWS V14.01,2013-05-04 18:16:00,
2013-05-04 14:21:00,81.0,69.4,29.68,SW,226,5.0,14.0,68,0.00,,BKN028,0.02,1071.00,VWS V14.01,2013-05-04 18:21:00,
2013-05-04 14:26:00,81.8,70.2,29.68,WSW,238,4.0,14.0,68,0.00,,BKN028,0.02,1111.00,VWS V14.01,2013-05-04 18:26:00,
2013-05-04 14:31:00,82.1,70.1,29.68,West,270,5.0,7.0,67,0.00,,BKN028,0.02,371.00,VWS V14.01,2013-05-04 18:31:00,
2013-05-04 14:36:00,82.5,71.7,29.68,West,279,5.0,12.0,70,0.00,,BKN028,0.02,1114.00,VWS V14.01,2013-05-04 18:36:00,
2013-05-04 14:41:00,82.8,70.3,29.68,West,265,11.0,15.0,66,0.00,,BKN028,0.02,976.00,VWS V14.01,2013-05-04 18:41:00,
2013-05-04 14:46:00,81.2,69.6,29.68,WSW,247,6.0,15.0,68,0.00,,BKN028,0.02,350.00,VWS V14.01,2013-05-04 18:46:00,
2013-05-04 14:51:00,82.3,70.7,29.68,SW,222,5.0,15.0,68,0.00,,BKN028,0.02,1079.00,VWS V14.01,2013-05-04 18:51:00,
2013-05-04 14:56:00,82.1,70.1,29.68,WSW,247,12.0,15.0,67,0.00,,BKN028,0.02,207.00,VWS V14.01,2013-05-04 18:56:00,
2013-05-04 15:01:00,80.7,69.2,29.68,WNW,292,8.0,14.0,68,0.00,,BKN049,0.02,232.00,VWS V14.01,2013-05-04 19:01:00,
2013-05-04 15:06:00,80.3,69.2,29.68,West,262,12.0,14.0,69,0.00,,BKN049,0.02,199.00,VWS V14.01,2013-05-04 19:06:00,
2013-05-04 15:11:00,80.1,69.4,29.68,WNW,289,9.0,14.0,70,0.00,,BKN049,0.02,169.00,VWS V14.01,2013-05-04 19:11:00,
2013-05-04 15:16:00,80.2,69.5,29.68,SW,236,15.0,16.0,70,0.00,,BKN049,0.02,260.00,VWS V14.01,2013-05-04 19:16:00,
2013-05-04 15:21:00,79.8,69.2,29.68,West,279,6.0,18.0,70,0.00,,BKN040,0.02,271.00,VWS V14.01,2013-05-04 19:21:00,
2013-05-04 15:26:00,79.6,69.4,29.68,West,263,8.0,18.0,71,0.00,,BKN040,0.02,253.00,VWS V14.01,2013-05-04 19:26:00,
2013-05-04 15:31:00,80.1,69.9,29.68,WSW,243,6.0,12.0,71,0.00,,BKN040,0.02,336.00,VWS V14.01,2013-05-04 19:31:00,
2013-05-04 15:36:00,80.2,69.5,29.68,West,263,5.0,15.0,70,0.00,,BKN040,0.02,248.00,VWS V14.01,2013-05-04 19:36:00,
2013-05-04 15:41:00,80.1,69.9,29.68,WNW,287,7.0,15.0,71,0.00,,OVC070,0.02,232.00,VWS V14.01,2013-05-04 19:41:00,
2013-05-04 15:46:00,80.0,68.9,29.68,West,275,8.0,15.0,69,0.00,,OVC070,0.02,299.00,VWS V14.01,2013-05-04 19:46:00,
2013-05-04 15:51:00,79.8,69.2,29.68,West,279,10.0,15.0,70,0.00,,OVC070,0.02,148.00,VWS V14.01,2013-05-04 19:51:00,
2013-05-04 15:56:00,79.6,69.4,29.68,NW,326,6.0,15.0,71,0.00,,OVC070,0.02,135.00,VWS V14.01,2013-05-04 19:56:00,
2013-05-04 16:01:00,79.5,69.3,29.67,West,274,7.0,12.0,71,0.00,,OVC065,0.02,285.00,VWS V14.01,2013-05-04 20:01:00,
2013-05-04 16:07:00,80.4,69.7,29.67,WSW,253,8.0,12.0,70,0.00,,OVC065,0.02,944.00,VWS V14.01,2013-05-04 20:07:00,
2013-05-04 16:12:00,81.5,69.9,29.67,West,268,13.0,13.0,68,0.00,,OVC065,0.02,840.00,VWS V14.01,2013-05-04 20:12:00,
2013-05-04 16:17:00,81.6,69.6,29.67,NW,309,8.0,14.0,67,0.00,,OVC065,0.02,274.00,VWS V14.01,2013-05-04 20:17:00,
2013-05-04 16:22:00,81.0,69.4,29.67,West,263,4.0,14.0,68,0.00,,OVC065,0.02,281.00,VWS V14.01,2013-05-04 20:22:00,
2013-05-04 16:27:00,80.8,68.8,29.67,West,271,13.0,16.0,67,0.00,,OVC065,0.02,269.00,VWS V14.01,2013-05-04 20:27:00,
2013-05-04 16:32:00,80.3,69.2,29.68,West,270,9.0,11.0,69,0.00,,OVC065,0.02,229.00,VWS V14.01,2013-05-04 20:32:00,
2013-05-04 16:37:00,80.1,69.0,29.67,WNW,288,6.0,12.0,69,0.00,,OVC065,0.02,264.00,VWS V14.01,2013-05-04 20:37:00,
2013-05-04 16:42:00,80.3,69.2,29.68,West,263,10.0,15.0,69,0.00,,OVC070,0.02,387.00,VWS V14.01,2013-05-04 20:42:00,
2013-05-04 16:47:00,80.2,69.5,29.68,SW,231,3.0,15.0,70,0.00,,OVC070,0.02,225.00,VWS V14.01,2013-05-04 20:47:00,
2013-05-04 16:52:00,79.8,69.2,29.68,WSW,239,6.0,15.0,70,0.00,,OVC070,0.02,176.00,VWS V14.01,2013-05-04 20:52:00,
2013-05-04 16:57:00,80.1,69.9,29.68,West,271,7.0,15.0,71,0.00,,OVC070,0.02,738.00,VWS V14.01,2013-05-04 20:57:00,
2013-05-04 17:02:00,81.3,70.2,29.68,WSW,238,6.0,11.0,69,0.00,,OVC042,0.02,295.00,VWS V14.01,2013-05-04 21:02:00,
2013-05-04 17:07:00,80.2,69.1,29.68,SW,235,6.0,11.0,69,0.00,,OVC042,0.02,304.00,VWS V14.01,2013-05-04 21:07:00,
2013-05-04 17:12:00,80.1,69.4,29.67,South,175,5.0,11.0,70,0.00,,OVC042,0.02,243.00,VWS V14.01,2013-05-04 21:12:00,
2013-05-04 17:17:00,80.4,69.7,29.67,WSW,237,6.0,12.0,70,0.00,,OVC042,0.02,193.00,VWS V14.01,2013-05-04 21:17:00,
2013-05-04 17:22:00,79.8,69.2,29.68,West,267,10.0,12.0,70,0.00,,BKN065,0.02,105.00,VWS V14.01,2013-05-04 21:22:00,
2013-05-04 17:27:00,79.3,69.1,29.68,West,266,4.0,12.0,71,0.00,,BKN065,0.02,220.00,VWS V14.01,2013-05-04 21:27:00,
2013-05-04 17:32:00,80.0,69.3,29.68,WSW,240,3.0,8.0,70,0.00,,BKN065,0.02,216.00,VWS V14.01,2013-05-04 21:32:00,
2013-05-04 17:37:00,79.8,69.2,29.68,WSW,250,7.0,10.0,70,0.00,,BKN065,0.02,134.00,VWS V14.01,2013-05-04 21:37:00,
2013-05-04 17:42:00,79.5,69.3,29.68,WNW,287,5.0,10.0,71,0.00,,BKN075,0.02,160.00,VWS V14.01,2013-05-04 21:42:00,
2013-05-04 17:47:00,79.5,68.9,29.68,WNW,284,5.0,10.0,70,0.00,,BKN075,0.02,165.00,VWS V14.01,2013-05-04 21:47:00,
2013-05-04 17:52:00,79.4,69.6,29.68,NW,323,3.0,10.0,72,0.00,,BKN075,0.02,169.00,VWS V14.01,2013-05-04 21:52:00,
2013-05-04 17:57:00,79.3,69.1,29.68,West,260,3.0,10.0,71,0.00,,BKN075,0.02,120.00,VWS V14.01,2013-05-04 21:57:00,
2013-05-04 18:02:00,79.3,69.5,29.68,WNW,290,2.0,6.0,72,0.00,,SCT065,0.02,174.00,VWS V14.01,2013-05-04 22:02:00,
2013-05-04 18:07:00,79.4,68.3,29.68,WNW,295,5.0,10.0,69,0.00,,SCT065,0.02,144.00,VWS V14.01,2013-05-04 22:07:00,
2013-05-04 18:12:00,79.2,69.8,29.68,NW,315,2.0,10.0,73,0.00,,SCT065,0.02,123.00,VWS V14.01,2013-05-04 22:12:00,
2013-05-04 18:17:00,78.8,69.4,29.68,WNW,301,7.0,12.0,73,0.00,,SCT065,0.02,76.00,VWS V14.01,2013-05-04 22:17:00,
2013-05-04 18:22:00,78.4,69.4,29.69,West,281,5.0,12.0,74,0.00,,BKN039,0.02,135.00,VWS V14.01,2013-05-04 22:22:00,
2013-05-04 18:27:00,78.2,69.6,29.69,WNW,288,10.0,13.0,75,0.00,,BKN039,0.02,179.00,VWS V14.01,2013-05-04 22:27:00,
2013-05-04 18:32:00,78.2,69.6,29.69,West,278,7.0,9.0,75,0.00,,BKN039,0.02,113.00,VWS V14.01,2013-05-04 22:32:00,
2013-05-04 18:37:00,78.1,69.1,29.69,WNW,288,6.0,11.0,74,0.00,,BKN033,0.02,105.00,VWS V14.01,2013-05-04 22:37:00,
2013-05-04 18:42:00,78.0,69.4,29.69,NW,314,5.0,11.0,75,0.00,,BKN033,0.02,86.00,VWS V14.01,2013-05-04 22:42:00,
2013-05-04 18:47:00,78.3,69.3,29.69,West,275,6.0,12.0,74,0.00,,BKN033,0.02,246.00,VWS V14.01,2013-05-04 22:47:00,
2013-05-04 18:53:00,78.8,69.4,29.69,West,266,7.0,12.0,73,0.00,,BKN033,0.02,104.00,VWS V14.01,2013-05-04 22:53:00,
2013-05-04 18:58:00,78.3,68.9,29.69,WNW,284,5.0,12.0,73,0.00,,SCT027,0.02,65.00,VWS V14.01,2013-05-04 22:58:00,
2013-05-04 19:03:00,77.9,68.9,29.69,WNW,286,3.0,5.0,74,0.00,,CLR,0.02,58.00,VWS V14.01,2013-05-04 23:03:00,
2013-05-04 19:08:00,77.8,68.9,29.69,West,281,5.0,6.0,74,0.00,,CLR,0.02,62.00,VWS V14.01,2013-05-04 23:08:00,
2013-05-04 19:13:00,77.8,68.9,29.69,West,263,5.0,7.0,74,0.00,,CLR,0.02,86.00,VWS V14.01,2013-05-04 23:13:00,
2013-05-04 19:18:00,77.7,68.4,29.69,WSW,238,3.0,9.0,73,0.00,,CLR,0.02,70.00,VWS V14.01,2013-05-04 23:18:00,
2013-05-04 19:23:00,77.6,68.3,29.69,SW,227,4.0,11.0,73,0.00,,CLR,0.02,69.00,VWS V14.01,2013-05-04 23:23:00,
2013-05-04 19:28:00,77.4,68.1,29.69,WSW,253,2.0,11.0,73,0.00,,CLR,0.02,37.00,VWS V14.01,2013-05-04 23:28:00,
2013-05-04 19:33:00,77.1,67.8,29.70,WSW,246,3.0,7.0,73,0.00,,CLR,0.02,21.00,VWS V14.01,2013-05-04 23:33:00,
2013-05-04 19:38:00,76.6,67.7,29.70,WSW,245,8.0,11.0,74,0.00,,CLR,0.02,19.00,VWS V14.01,2013-05-04 23:38:00,
2013-05-04 19:43:00,76.4,67.9,29.70,WSW,239,5.0,11.0,75,0.00,,CLR,0.02,16.00,VWS V14.01,2013-05-04 23:43:00,
2013-05-04 19:48:00,76.2,67.7,29.70,WSW,246,7.0,13.0,75,0.00,,CLR,0.02,14.00,VWS V14.01,2013-05-04 23:48:00,
2013-05-04 19:53:00,75.9,67.8,29.70,WSW,250,8.0,13.0,76,0.00,,CLR,0.02,14.00,VWS V14.01,2013-05-04 23:53:00,
2013-05-04 19:58:00,75.6,67.5,29.70,SW,221,5.0,13.0,76,0.00,,SCT035,0.02,11.00,VWS V14.01,2013-05-04 23:58:00,
2013-05-04 20:03:00,75.2,67.5,29.70,WSW,249,6.0,11.0,77,0.00,,SCT035,0.02,7.00,VWS V14.01,2013-05-05 00:03:00,
2013-05-04 20:08:00,74.9,67.6,29.70,SW,223,7.0,11.0,78,0.00,,SCT035,0.02,0.00,VWS V14.01,2013-05-05 00:08:00,
2013-05-04 20:13:00,74.6,67.7,29.70,WSW,237,7.0,11.0,79,0.00,,SCT035,0.02,0.00,VWS V14.01,2013-05-05 00:13:00,
2013-05-04 20:18:00,74.3,67.4,29.70,SW,229,4.0,11.0,79,0.00,,BKN035,0.02,0.00,VWS V14.01,2013-05-05 00:18:00,
2013-05-04 20:30:00,73.7,67.5,29.70,WSW,248,6.0,13.0,81,0.00,,BKN035,0.02,1.00,VWS V14.01,2013-05-05 00:30:00,
2013-05-04 21:00:00,72.6,67.5,29.72,SW,225,6.0,12.0,84,0.00,,BKN035,0.02,0.00,VWS V14.01,2013-05-05 01:00:00,
2013-05-04 21:30:00,71.6,67.5,29.73,SW,225,4.0,9.0,87,0.00,,BKN035,0.02,0.00,VWS V14.01,2013-05-05 01:30:00,
2013-05-04 22:19:00,71.6,67.5,29.73,SW,225,4.0,9.0,87,0.00,,BKN035,0.02,0.00,VWS V14.01,2013-05-05 02:19:00,
2013-05-04 22:24:00,69.9,66.8,29.77,SW,225,1.0,4.0,90,0.00,,SCT023,0.02,0.00,VWS V14.01,2013-05-05 02:24:00,
2013-05-04 22:29:00,69.6,66.9,29.77,SW,225,0.0,4.0,91,0.00,,SCT023,0.02,0.00,VWS V14.01,2013-05-05 02:29:00,
2013-05-04 22:34:00,69.5,66.8,29.77,WSW,257,0.0,3.0,91,0.00,,SCT023,0.02,0.00,VWS V14.01,2013-05-05 02:34:00,
2013-05-04 22:39:00,69.5,67.1,29.77,WSW,256,3.0,3.0,92,0.00,,FEW016,0.02,0.00,VWS V14.01,2013-05-05 02:39:00,
2013-05-04 22:44:00,69.4,67.0,29.78,SW,223,1.0,3.0,92,0.00,,FEW016,0.02,0.00,VWS V14.01,2013-05-05 02:44:00,
2013-05-04 22:49:00,69.3,66.9,29.78,SW,228,0.0,3.0,92,0.00,,FEW016,0.02,0.00,VWS V14.01,2013-05-05 02:49:00,
2013-05-04 22:54:00,69.3,66.9,29.78,SW,232,2.0,4.0,92,0.00,,FEW016,0.02,0.00,VWS V14.01,2013-05-05 02:54:00,
2013-05-04 22:59:00,69.2,66.8,29.78,SW,236,2.0,4.0,92,0.00,,FEW013,0.02,0.00,VWS V14.01,2013-05-05 02:59:00,
2013-05-04 23:04:00,69.2,66.8,29.78,WSW,239,3.0,3.0,92,0.00,,FEW013,0.02,0.00,VWS V14.01,2013-05-05 03:04:00,
2013-05-04 23:09:00,69.2,67.1,29.78,SSW,202,5.0,5.0,93,0.00,,FEW013,0.02,0.00,VWS V14.01,2013-05-05 03:09:00,
2013-05-04 23:14:00,69.2,67.1,29.78,SSW,196,0.0,5.0,93,0.00,,FEW013,0.02,0.00,VWS V14.01,2013-05-05 03:14:00,
2013-05-04 23:19:00,69.3,67.2,29.78,SSW,198,3.0,5.0,93,0.00,,CLR,0.02,0.00,VWS V14.01,2013-05-05 03:19:00,
2013-05-04 23:24:00,69.3,67.2,29.78,SSW,213,2.0,5.0,93,0.00,,CLR,0.02,0.00,VWS V14.01,2013-05-05 03:24:00,
2013-05-04 23:29:00,69.3,67.2,29.78,SSW,211,1.0,5.0,93,0.00,,CLR,0.02,0.00,VWS V14.01,2013-05-05 03:29:00,
2013-05-04 23:34:00,69.4,67.3,29.78,SW,232,2.0,4.0,93,0.00,,CLR,0.02,0.00,VWS V14.01,2013-05-05 03:34:00,
2013-05-04 23:39:00,69.6,67.5,29.78,SW,221,3.0,4.0,93,0.00,,BKN023,0.02,0.00,VWS V14.01,2013-05-05 03:39:00,
2013-05-04 23:44:00,69.7,67.6,29.78,SSW,203,3.0,5.0,93,0.00,,BKN023,0.02,0.00,VWS V14.01,2013-05-05 03:44:00,
2013-05-04 23:50:00,69.7,67.6,29.77,SW,223,4.0,6.0,93,0.00,,BKN023,0.02,0.00,VWS V14.01,2013-05-05 03:50:00,
2013-05-04 23:55:00,69.6,67.5,29.77,SSW,213,5.0,6.0,93,0.00,,BKN023,0.02,0.00,VWS V14.01,2013-05-05 03:55:00,